sensor_id;sensor_type;location;lat;lon;timestamp;P1;durP1;ratioP1;P2;durP2;ratioP2
74523;SDS011;63074;44.696;10.358;2022-11-25T00:01:06;2.55;;;1.10;;
74523;SDS011;63074;44.696;10.358;2022-11-25T00:03:36;4.60;;;1.73;;
74523;SDS011;63074;44.696;10.358;2022-11-25T00:06:06;3.47;;;1.90;;
74523;SDS011;63074;44.696;10.358;2022-11-25T00:08:36;3.63;;;1.80;;
74523;SDS011;63074;44.696;10.358;2022-11-25T00:11:03;3.47;;;1.25;;
74523;SDS011;63074;44.696;10.358;2022-11-25T00:13:30;2.20;;;1.42;;
74523;SDS011;63074;44.696;10.358;2022-11-25T00:16:00;3.60;;;1.85;;
74523;SDS011;63074;44.696;10.358;2022-11-25T00:18:27;2.72;;;1.48;;
74523;SDS011;63074;44.696;10.358;2022-11-25T00:20:54;3.63;;;2.20;;
74523;SDS011;63074;44.696;10.358;2022-11-25T00:23:20;1.75;;;1.40;;
74523;SDS011;63074;44.696;10.358;2022-11-25T00:25:46;2.58;;;1.05;;
74523;SDS011;63074;44.696;10.358;2022-11-25T00:28:12;2.08;;;1.40;;
74523;SDS011;63074;44.696;10.358;2022-11-25T00:30:38;3.65;;;1.13;;
74523;SDS011;63074;44.696;10.358;2022-11-25T00:33:04;2.28;;;1.17;;
74523;SDS011;63074;44.696;10.358;2022-11-25T00:35:33;3.45;;;1.23;;
74523;SDS011;63074;44.696;10.358;2022-11-25T00:37:59;3.47;;;1.50;;
74523;SDS011;63074;44.696;10.358;2022-11-25T00:40:25;2.40;;;1.52;;
74523;SDS011;63074;44.696;10.358;2022-11-25T00:42:51;2.85;;;1.92;;
74523;SDS011;63074;44.696;10.358;2022-11-25T00:45:36;3.55;;;1.45;;
74523;SDS011;63074;44.696;10.358;2022-11-25T00:48:02;2.90;;;1.25;;
74523;SDS011;63074;44.696;10.358;2022-11-25T00:50:29;2.30;;;1.70;;
74523;SDS011;63074;44.696;10.358;2022-11-25T00:52:55;2.70;;;1.20;;
74523;SDS011;63074;44.696;10.358;2022-11-25T00:55:21;5.90;;;2.95;;
74523;SDS011;63074;44.696;10.358;2022-11-25T00:57:47;3.67;;;1.83;;
74523;SDS011;63074;44.696;10.358;2022-11-25T01:00:14;2.85;;;1.45;;
74523;SDS011;63074;44.696;10.358;2022-11-25T01:02:40;2.83;;;0.98;;
74523;SDS011;63074;44.696;10.358;2022-11-25T01:05:06;3.22;;;1.08;;
74523;SDS011;63074;44.696;10.358;2022-11-25T01:07:32;1.83;;;0.95;;
74523;SDS011;63074;44.696;10.358;2022-11-25T01:09:58;2.33;;;1.40;;
74523;SDS011;63074;44.696;10.358;2022-11-25T01:12:25;2.28;;;1.33;;
74523;SDS011;63074;44.696;10.358;2022-11-25T01:14:51;3.30;;;1.20;;
74523;SDS011;63074;44.696;10.358;2022-11-25T01:17:17;2.85;;;1.10;;
74523;SDS011;63074;44.696;10.358;2022-11-25T01:19:43;4.07;;;1.30;;
74523;SDS011;63074;44.696;10.358;2022-11-25T01:22:09;1.88;;;1.27;;
74523;SDS011;63074;44.696;10.358;2022-11-25T01:24:35;2.60;;;1.30;;
74523;SDS011;63074;44.696;10.358;2022-11-25T01:27:02;2.92;;;1.52;;
74523;SDS011;63074;44.696;10.358;2022-11-25T01:29:28;3.40;;;1.45;;
74523;SDS011;63074;44.696;10.358;2022-11-25T01:31:54;4.03;;;2.33;;
74523;SDS011;63074;44.696;10.358;2022-11-25T01:34:23;2.65;;;1.48;;
74523;SDS011;63074;44.696;10.358;2022-11-25T01:36:50;11.75;;;6.75;;
74523;SDS011;63074;44.696;10.358;2022-11-25T01:39:18;2.78;;;1.60;;
74523;SDS011;63074;44.696;10.358;2022-11-25T01:41:46;3.13;;;0.95;;
74523;SDS011;63074;44.696;10.358;2022-11-25T01:44:16;3.22;;;1.25;;
74523;SDS011;63074;44.696;10.358;2022-11-25T01:52:34;2.50;;;1.30;;
74523;SDS011;63074;44.696;10.358;2022-11-25T01:55:09;6.65;;;1.27;;
74523;SDS011;63074;44.696;10.358;2022-11-25T01:57:46;2.95;;;2.00;;
74523;SDS011;63074;44.696;10.358;2022-11-25T02:00:16;3.75;;;1.17;;
74523;SDS011;63074;44.696;10.358;2022-11-25T02:02:42;3.10;;;1.75;;
74523;SDS011;63074;44.696;10.358;2022-11-25T02:05:11;2.25;;;1.13;;
74523;SDS011;63074;44.696;10.358;2022-11-25T02:07:41;2.90;;;1.58;;
74523;SDS011;63074;44.696;10.358;2022-11-25T02:10:12;2.42;;;1.27;;
74523;SDS011;63074;44.696;10.358;2022-11-25T02:12:45;2.35;;;1.20;;
74523;SDS011;63074;44.696;10.358;2022-11-25T02:15:12;2.40;;;1.38;;
74523;SDS011;63074;44.696;10.358;2022-11-25T02:17:41;2.88;;;1.05;;
74523;SDS011;63074;44.696;10.358;2022-11-25T02:20:12;3.03;;;1.08;;
74523;SDS011;63074;44.696;10.358;2022-11-25T02:25:16;3.78;;;1.52;;
74523;SDS011;63074;44.696;10.358;2022-11-25T02:27:47;3.17;;;1.60;;
74523;SDS011;63074;44.696;10.358;2022-11-25T02:30:23;2.25;;;1.70;;
74523;SDS011;63074;44.696;10.358;2022-11-25T02:32:49;3.15;;;1.67;;
74523;SDS011;63074;44.696;10.358;2022-11-25T02:35:35;2.95;;;1.45;;
74523;SDS011;63074;44.696;10.358;2022-11-25T02:44:05;2.72;;;1.38;;
74523;SDS011;63074;44.696;10.358;2022-11-25T02:46:31;3.13;;;1.20;;
74523;SDS011;63074;44.696;10.358;2022-11-25T02:48:58;2.83;;;1.98;;
74523;SDS011;63074;44.696;10.358;2022-11-25T02:51:26;4.13;;;1.73;;
74523;SDS011;63074;44.696;10.358;2022-11-25T02:53:55;3.45;;;2.00;;
74523;SDS011;63074;44.696;10.358;2022-11-25T02:56:22;4.65;;;2.05;;
74523;SDS011;63074;44.696;10.358;2022-11-25T02:58:50;3.15;;;2.10;;
74523;SDS011;63074;44.696;10.358;2022-11-25T03:01:17;3.28;;;2.03;;
74523;SDS011;63074;44.696;10.358;2022-11-25T03:03:43;3.80;;;1.83;;
74523;SDS011;63074;44.696;10.358;2022-11-25T03:06:09;2.88;;;1.50;;
74523;SDS011;63074;44.696;10.358;2022-11-25T03:08:35;4.28;;;2.20;;
74523;SDS011;63074;44.696;10.358;2022-11-25T03:11:02;5.35;;;1.85;;
74523;SDS011;63074;44.696;10.358;2022-11-25T03:13:29;3.63;;;1.92;;
74523;SDS011;63074;44.696;10.358;2022-11-25T03:15:55;4.18;;;1.90;;
74523;SDS011;63074;44.696;10.358;2022-11-25T03:18:21;10.00;;;2.47;;
74523;SDS011;63074;44.696;10.358;2022-11-25T03:20:50;6.18;;;2.53;;
74523;SDS011;63074;44.696;10.358;2022-11-25T03:23:17;4.95;;;2.70;;
74523;SDS011;63074;44.696;10.358;2022-11-25T03:25:44;4.63;;;2.30;;
74523;SDS011;63074;44.696;10.358;2022-11-25T03:28:10;4.65;;;2.47;;
74523;SDS011;63074;44.696;10.358;2022-11-25T03:30:36;5.85;;;3.13;;
74523;SDS011;63074;44.696;10.358;2022-11-25T03:33:02;6.07;;;3.80;;
74523;SDS011;63074;44.696;10.358;2022-11-25T03:35:29;12.07;;;4.60;;
74523;SDS011;63074;44.696;10.358;2022-11-25T03:37:55;9.07;;;3.65;;
74523;SDS011;63074;44.696;10.358;2022-11-25T03:40:21;4.35;;;2.25;;
74523;SDS011;63074;44.696;10.358;2022-11-25T03:42:48;5.75;;;3.00;;
74523;SDS011;63074;44.696;10.358;2022-11-25T03:45:14;7.25;;;3.15;;
74523;SDS011;63074;44.696;10.358;2022-11-25T03:47:41;6.30;;;3.67;;
74523;SDS011;63074;44.696;10.358;2022-11-25T03:50:09;5.07;;;3.00;;
74523;SDS011;63074;44.696;10.358;2022-11-25T03:52:37;5.80;;;3.03;;
74523;SDS011;63074;44.696;10.358;2022-11-25T03:55:04;5.75;;;4.05;;
74523;SDS011;63074;44.696;10.358;2022-11-25T03:57:31;6.40;;;4.03;;
74523;SDS011;63074;44.696;10.358;2022-11-25T03:59:57;7.75;;;4.80;;
74523;SDS011;63074;44.696;10.358;2022-11-25T04:02:23;6.43;;;4.68;;
74523;SDS011;63074;44.696;10.358;2022-11-25T04:04:49;7.57;;;4.47;;
74523;SDS011;63074;44.696;10.358;2022-11-25T04:07:15;10.68;;;5.78;;
74523;SDS011;63074;44.696;10.358;2022-11-25T04:09:42;13.85;;;8.13;;
74523;SDS011;63074;44.696;10.358;2022-11-25T04:12:08;16.65;;;8.38;;
74523;SDS011;63074;44.696;10.358;2022-11-25T04:14:53;11.73;;;6.22;;
74523;SDS011;63074;44.696;10.358;2022-11-25T04:17:19;9.68;;;5.57;;
74523;SDS011;63074;44.696;10.358;2022-11-25T04:19:45;9.90;;;5.82;;
74523;SDS011;63074;44.696;10.358;2022-11-25T04:22:12;10.52;;;6.15;;
74523;SDS011;63074;44.696;10.358;2022-11-25T04:24:38;9.48;;;6.00;;
74523;SDS011;63074;44.696;10.358;2022-11-25T04:27:04;11.27;;;6.53;;
74523;SDS011;63074;44.696;10.358;2022-11-25T04:29:30;13.30;;;7.47;;
74523;SDS011;63074;44.696;10.358;2022-11-25T04:31:57;11.82;;;6.70;;
74523;SDS011;63074;44.696;10.358;2022-11-25T04:34:23;11.77;;;7.35;;
74523;SDS011;63074;44.696;10.358;2022-11-25T04:36:49;11.38;;;6.97;;
74523;SDS011;63074;44.696;10.358;2022-11-25T04:39:15;10.85;;;7.43;;
74523;SDS011;63074;44.696;10.358;2022-11-25T04:41:41;14.15;;;7.88;;
74523;SDS011;63074;44.696;10.358;2022-11-25T04:44:08;12.82;;;7.10;;
74523;SDS011;63074;44.696;10.358;2022-11-25T04:46:38;11.65;;;7.47;;
74523;SDS011;63074;44.696;10.358;2022-11-25T04:49:06;10.07;;;7.07;;
74523;SDS011;63074;44.696;10.358;2022-11-25T04:51:33;12.07;;;6.13;;
74523;SDS011;63074;44.696;10.358;2022-11-25T04:53:59;14.15;;;7.82;;
74523;SDS011;63074;44.696;10.358;2022-11-25T04:56:25;13.57;;;7.30;;
74523;SDS011;63074;44.696;10.358;2022-11-25T04:58:52;10.25;;;7.10;;
74523;SDS011;63074;44.696;10.358;2022-11-25T05:01:37;12.77;;;7.90;;
74523;SDS011;63074;44.696;10.358;2022-11-25T05:04:03;9.77;;;6.60;;
74523;SDS011;63074;44.696;10.358;2022-11-25T05:06:29;9.60;;;6.03;;
74523;SDS011;63074;44.696;10.358;2022-11-25T05:08:55;8.27;;;4.97;;
74523;SDS011;63074;44.696;10.358;2022-11-25T05:11:21;8.65;;;5.47;;
74523;SDS011;63074;44.696;10.358;2022-11-25T05:13:47;10.35;;;6.75;;
74523;SDS011;63074;44.696;10.358;2022-11-25T05:16:14;9.35;;;6.32;;
74523;SDS011;63074;44.696;10.358;2022-11-25T05:18:40;10.68;;;5.63;;
74523;SDS011;63074;44.696;10.358;2022-11-25T05:21:06;9.93;;;5.88;;
74523;SDS011;63074;44.696;10.358;2022-11-25T05:23:32;9.60;;;6.38;;
74523;SDS011;63074;44.696;10.358;2022-11-25T05:25:59;15.30;;;12.82;;
74523;SDS011;63074;44.696;10.358;2022-11-25T05:28:29;12.15;;;10.15;;
74523;SDS011;63074;44.696;10.358;2022-11-25T05:30:55;9.65;;;6.15;;
74523;SDS011;63074;44.696;10.358;2022-11-25T05:33:22;10.00;;;6.05;;
74523;SDS011;63074;44.696;10.358;2022-11-25T05:35:58;18.75;;;15.73;;
74523;SDS011;63074;44.696;10.358;2022-11-25T05:38:27;32.58;;;29.20;;
74523;SDS011;63074;44.696;10.358;2022-11-25T05:40:59;12.52;;;7.35;;
74523;SDS011;63074;44.696;10.358;2022-11-25T05:43:26;12.38;;;7.00;;
74523;SDS011;63074;44.696;10.358;2022-11-25T05:45:53;11.88;;;8.25;;
74523;SDS011;63074;44.696;10.358;2022-11-25T05:48:19;19.13;;;10.95;;
74523;SDS011;63074;44.696;10.358;2022-11-25T05:50:45;12.07;;;7.30;;
74523;SDS011;63074;44.696;10.358;2022-11-25T05:53:11;9.35;;;6.60;;
74523;SDS011;63074;44.696;10.358;2022-11-25T05:55:38;11.18;;;6.47;;
74523;SDS011;63074;44.696;10.358;2022-11-25T05:58:04;13.80;;;8.05;;
74523;SDS011;63074;44.696;10.358;2022-11-25T06:00:31;13.38;;;7.03;;
74523;SDS011;63074;44.696;10.358;2022-11-25T06:02:57;13.23;;;7.18;;
74523;SDS011;63074;44.696;10.358;2022-11-25T06:05:24;8.77;;;5.75;;
74523;SDS011;63074;44.696;10.358;2022-11-25T06:07:50;9.18;;;5.60;;
74523;SDS011;63074;44.696;10.358;2022-11-25T06:10:17;10.30;;;4.88;;
74523;SDS011;63074;44.696;10.358;2022-11-25T06:12:43;7.20;;;4.28;;
74523;SDS011;63074;44.696;10.358;2022-11-25T06:15:10;11.02;;;5.75;;
74523;SDS011;63074;44.696;10.358;2022-11-25T06:17:36;8.43;;;4.95;;
74523;SDS011;63074;44.696;10.358;2022-11-25T06:20:04;8.60;;;5.50;;
74523;SDS011;63074;44.696;10.358;2022-11-25T06:22:31;9.15;;;5.57;;
74523;SDS011;63074;44.696;10.358;2022-11-25T06:24:57;8.73;;;5.70;;
74523;SDS011;63074;44.696;10.358;2022-11-25T06:27:23;11.23;;;6.05;;
74523;SDS011;63074;44.696;10.358;2022-11-25T06:29:50;10.60;;;5.82;;
74523;SDS011;63074;44.696;10.358;2022-11-25T06:32:16;10.82;;;6.53;;
74523;SDS011;63074;44.696;10.358;2022-11-25T06:34:42;9.80;;;4.57;;
74523;SDS011;63074;44.696;10.358;2022-11-25T06:37:08;8.60;;;4.55;;
74523;SDS011;63074;44.696;10.358;2022-11-25T06:39:34;7.10;;;4.07;;
74523;SDS011;63074;44.696;10.358;2022-11-25T06:42:00;7.43;;;4.70;;
74523;SDS011;63074;44.696;10.358;2022-11-25T06:44:26;8.35;;;4.68;;
74523;SDS011;63074;44.696;10.358;2022-11-25T06:46:52;8.57;;;5.00;;
74523;SDS011;63074;44.696;10.358;2022-11-25T06:49:19;8.85;;;4.45;;
74523;SDS011;63074;44.696;10.358;2022-11-25T06:51:45;8.68;;;5.47;;
74523;SDS011;63074;44.696;10.358;2022-11-25T06:54:13;7.93;;;4.93;;
74523;SDS011;63074;44.696;10.358;2022-11-25T06:56:39;8.88;;;6.22;;
74523;SDS011;63074;44.696;10.358;2022-11-25T06:59:05;11.48;;;7.72;;
74523;SDS011;63074;44.696;10.358;2022-11-25T07:01:32;9.05;;;6.43;;
74523;SDS011;63074;44.696;10.358;2022-11-25T07:04:03;9.93;;;4.90;;
74523;SDS011;63074;44.696;10.358;2022-11-25T07:06:30;9.25;;;5.50;;
74523;SDS011;63074;44.696;10.358;2022-11-25T07:08:57;9.80;;;5.45;;
74523;SDS011;63074;44.696;10.358;2022-11-25T07:11:28;8.15;;;5.10;;
74523;SDS011;63074;44.696;10.358;2022-11-25T07:13:57;11.50;;;5.88;;
74523;SDS011;63074;44.696;10.358;2022-11-25T07:16:24;8.65;;;4.65;;
74523;SDS011;63074;44.696;10.358;2022-11-25T07:18:51;8.00;;;3.97;;
74523;SDS011;63074;44.696;10.358;2022-11-25T07:21:18;6.97;;;4.25;;
74523;SDS011;63074;44.696;10.358;2022-11-25T07:23:49;6.63;;;3.85;;
74523;SDS011;63074;44.696;10.358;2022-11-25T07:26:20;6.82;;;3.80;;
74523;SDS011;63074;44.696;10.358;2022-11-25T07:28:48;10.88;;;3.97;;
74523;SDS011;63074;44.696;10.358;2022-11-25T07:31:18;7.30;;;3.90;;
74523;SDS011;63074;44.696;10.358;2022-11-25T07:33:56;8.52;;;3.65;;
74523;SDS011;63074;44.696;10.358;2022-11-25T07:36:26;10.65;;;4.65;;
74523;SDS011;63074;44.696;10.358;2022-11-25T07:38:54;8.98;;;5.03;;
74523;SDS011;63074;44.696;10.358;2022-11-25T07:41:22;9.63;;;6.25;;
74523;SDS011;63074;44.696;10.358;2022-11-25T07:43:52;9.02;;;5.93;;
74523;SDS011;63074;44.696;10.358;2022-11-25T07:48:57;10.85;;;6.20;;
74523;SDS011;63074;44.696;10.358;2022-11-25T07:53:57;10.00;;;6.20;;
74523;SDS011;63074;44.696;10.358;2022-11-25T07:56:25;12.20;;;7.55;;
74523;SDS011;63074;44.696;10.358;2022-11-25T07:58:52;10.48;;;7.63;;
74523;SDS011;63074;44.696;10.358;2022-11-25T08:01:19;11.20;;;6.70;;
74523;SDS011;63074;44.696;10.358;2022-11-25T08:03:45;11.73;;;6.95;;
74523;SDS011;63074;44.696;10.358;2022-11-25T08:06:14;11.63;;;7.68;;
74523;SDS011;63074;44.696;10.358;2022-11-25T08:08:43;12.43;;;6.28;;
74523;SDS011;63074;44.696;10.358;2022-11-25T08:11:10;13.93;;;7.38;;
74523;SDS011;63074;44.696;10.358;2022-11-25T08:13:39;14.38;;;7.75;;
74523;SDS011;63074;44.696;10.358;2022-11-25T08:16:05;19.65;;;10.65;;
74523;SDS011;63074;44.696;10.358;2022-11-25T08:18:32;14.38;;;9.55;;
74523;SDS011;63074;44.696;10.358;2022-11-25T08:20:59;15.75;;;10.38;;
74523;SDS011;63074;44.696;10.358;2022-11-25T08:23:28;21.88;;;12.40;;
74523;SDS011;63074;44.696;10.358;2022-11-25T08:25:56;23.25;;;11.50;;
74523;SDS011;63074;44.696;10.358;2022-11-25T08:28:26;18.10;;;10.57;;
74523;SDS011;63074;44.696;10.358;2022-11-25T08:30:59;14.40;;;8.57;;
74523;SDS011;63074;44.696;10.358;2022-11-25T08:33:36;15.02;;;9.43;;
74523;SDS011;63074;44.696;10.358;2022-11-25T08:36:03;16.17;;;11.23;;
74523;SDS011;63074;44.696;10.358;2022-11-25T08:38:30;15.50;;;10.35;;
74523;SDS011;63074;44.696;10.358;2022-11-25T08:40:57;16.50;;;10.65;;
74523;SDS011;63074;44.696;10.358;2022-11-25T08:43:24;16.15;;;10.55;;
74523;SDS011;63074;44.696;10.358;2022-11-25T08:45:51;13.77;;;9.90;;
74523;SDS011;63074;44.696;10.358;2022-11-25T08:48:17;15.00;;;9.65;;
74523;SDS011;63074;44.696;10.358;2022-11-25T08:50:49;13.23;;;9.43;;
74523;SDS011;63074;44.696;10.358;2022-11-25T08:53:17;13.30;;;9.82;;
74523;SDS011;63074;44.696;10.358;2022-11-25T08:55:44;18.75;;;11.07;;
74523;SDS011;63074;44.696;10.358;2022-11-25T08:58:10;18.95;;;10.52;;
74523;SDS011;63074;44.696;10.358;2022-11-25T09:00:37;16.77;;;11.85;;
74523;SDS011;63074;44.696;10.358;2022-11-25T09:03:05;17.73;;;10.70;;
74523;SDS011;63074;44.696;10.358;2022-11-25T09:05:32;14.45;;;9.50;;
74523;SDS011;63074;44.696;10.358;2022-11-25T09:08:02;16.23;;;10.60;;
74523;SDS011;63074;44.696;10.358;2022-11-25T09:10:30;14.88;;;8.63;;
74523;SDS011;63074;44.696;10.358;2022-11-25T09:12:57;14.68;;;8.95;;
74523;SDS011;63074;44.696;10.358;2022-11-25T09:15:24;15.85;;;9.57;;
74523;SDS011;63074;44.696;10.358;2022-11-25T09:18:01;17.30;;;11.43;;
74523;SDS011;63074;44.696;10.358;2022-11-25T09:20:29;15.98;;;10.75;;
74523;SDS011;63074;44.696;10.358;2022-11-25T09:22:59;20.15;;;12.30;;
74523;SDS011;63074;44.696;10.358;2022-11-25T09:25:26;16.55;;;9.88;;
74523;SDS011;63074;44.696;10.358;2022-11-25T09:27:54;15.30;;;11.07;;
74523;SDS011;63074;44.696;10.358;2022-11-25T09:30:21;17.15;;;10.32;;
74523;SDS011;63074;44.696;10.358;2022-11-25T09:32:48;16.48;;;10.23;;
74523;SDS011;63074;44.696;10.358;2022-11-25T09:35:16;15.52;;;10.10;;
74523;SDS011;63074;44.696;10.358;2022-11-25T09:37:43;16.38;;;9.70;;
74523;SDS011;63074;44.696;10.358;2022-11-25T09:46:08;13.40;;;8.70;;
74523;SDS011;63074;44.696;10.358;2022-11-25T09:51:51;13.85;;;7.75;;
74523;SDS011;63074;44.696;10.358;2022-11-25T09:54:27;16.83;;;11.02;;
74523;SDS011;63074;44.696;10.358;2022-11-25T10:00:06;18.55;;;12.02;;
74523;SDS011;63074;44.696;10.358;2022-11-25T10:05:17;35.55;;;21.30;;
74523;SDS011;63074;44.696;10.358;2022-11-25T10:07:52;29.98;;;19.83;;
74523;SDS011;63074;44.696;10.358;2022-11-25T10:10:25;29.65;;;19.00;;
74523;SDS011;63074;44.696;10.358;2022-11-25T10:13:01;28.23;;;17.13;;
74523;SDS011;63074;44.696;10.358;2022-11-25T10:15:34;29.55;;;18.17;;
74523;SDS011;63074;44.696;10.358;2022-11-25T10:18:05;33.47;;;22.60;;
74523;SDS011;63074;44.696;10.358;2022-11-25T10:20:42;33.55;;;20.05;;
74523;SDS011;63074;44.696;10.358;2022-11-25T10:23:11;32.95;;;20.95;;
74523;SDS011;63074;44.696;10.358;2022-11-25T10:25:45;31.17;;;20.08;;
74523;SDS011;63074;44.696;10.358;2022-11-25T10:28:17;29.90;;;18.98;;
74523;SDS011;63074;44.696;10.358;2022-11-25T10:33:33;28.17;;;17.60;;
74523;SDS011;63074;44.696;10.358;2022-11-25T10:41:36;27.70;;;17.98;;
74523;SDS011;63074;44.696;10.358;2022-11-25T10:44:29;27.35;;;16.25;;
74523;SDS011;63074;44.696;10.358;2022-11-25T10:52:59;29.23;;;17.30;;
74523;SDS011;63074;44.696;10.358;2022-11-25T10:55:37;30.63;;;18.70;;
74523;SDS011;63074;44.696;10.358;2022-11-25T10:58:33;31.05;;;19.63;;
74523;SDS011;63074;44.696;10.358;2022-11-25T11:01:06;31.38;;;18.98;;
74523;SDS011;63074;44.696;10.358;2022-11-25T11:03:53;30.30;;;18.35;;
74523;SDS011;63074;44.696;10.358;2022-11-25T11:06:31;27.08;;;18.85;;
74523;SDS011;63074;44.696;10.358;2022-11-25T11:09:02;27.23;;;18.33;;
74523;SDS011;63074;44.696;10.358;2022-11-25T11:11:29;30.13;;;17.05;;
74523;SDS011;63074;44.696;10.358;2022-11-25T11:14:10;26.35;;;17.65;;
74523;SDS011;63074;44.696;10.358;2022-11-25T11:19:09;28.95;;;16.92;;
74523;SDS011;63074;44.696;10.358;2022-11-25T11:21:48;26.80;;;18.65;;
74523;SDS011;63074;44.696;10.358;2022-11-25T11:24:25;26.60;;;17.70;;
74523;SDS011;63074;44.696;10.358;2022-11-25T11:29:45;28.15;;;18.52;;
74523;SDS011;63074;44.696;10.358;2022-11-25T11:32:21;26.50;;;18.08;;
74523;SDS011;63074;44.696;10.358;2022-11-25T11:37:43;29.38;;;18.15;;
74523;SDS011;63074;44.696;10.358;2022-11-25T11:43:01;28.65;;;18.50;;
74523;SDS011;63074;44.696;10.358;2022-11-25T11:48:31;26.75;;;18.00;;
74523;SDS011;63074;44.696;10.358;2022-11-25T11:51:32;28.05;;;18.40;;
74523;SDS011;63074;44.696;10.358;2022-11-25T11:54:20;27.77;;;18.38;;
74523;SDS011;63074;44.696;10.358;2022-11-25T11:57:44;30.17;;;18.35;;
74523;SDS011;63074;44.696;10.358;2022-11-25T11:59:53;27.55;;;18.02;;
74523;SDS011;63074;44.696;10.358;2022-11-25T12:10:19;26.77;;;18.98;;
74523;SDS011;63074;44.696;10.358;2022-11-25T12:13:21;28.35;;;18.50;;
74523;SDS011;63074;44.696;10.358;2022-11-25T12:18:47;28.25;;;17.55;;
74523;SDS011;63074;44.696;10.358;2022-11-25T12:27:00;34.65;;;21.27;;
74523;SDS011;63074;44.696;10.358;2022-11-25T12:29:39;31.80;;;21.02;;
74523;SDS011;63074;44.696;10.358;2022-11-25T12:35:02;34.90;;;22.48;;
74523;SDS011;63074;44.696;10.358;2022-11-25T12:40:17;32.05;;;22.20;;
74523;SDS011;63074;44.696;10.358;2022-11-25T12:43:15;31.40;;;22.25;;
74523;SDS011;63074;44.696;10.358;2022-11-25T12:45:57;34.60;;;23.52;;
74523;SDS011;63074;44.696;10.358;2022-11-25T12:48:39;35.03;;;22.92;;
74523;SDS011;63074;44.696;10.358;2022-11-25T13:07:28;38.78;;;25.98;;
74523;SDS011;63074;44.696;10.358;2022-11-25T13:10:22;35.67;;;24.30;;
74523;SDS011;63074;44.696;10.358;2022-11-25T13:16:02;35.33;;;25.38;;
74523;SDS011;63074;44.696;10.358;2022-11-25T13:21:09;35.08;;;24.23;;
74523;SDS011;63074;44.696;10.358;2022-11-25T13:23:44;37.00;;;25.08;;
74523;SDS011;63074;44.696;10.358;2022-11-25T13:28:54;41.67;;;28.63;;
74523;SDS011;63074;44.696;10.358;2022-11-25T13:36:49;48.60;;;30.95;;
74523;SDS011;63074;44.696;10.358;2022-11-25T13:39:16;45.70;;;31.60;;
74523;SDS011;63074;44.696;10.358;2022-11-25T13:44:47;45.15;;;30.77;;
74523;SDS011;63074;44.696;10.358;2022-11-25T13:50:01;47.70;;;31.60;;
74523;SDS011;63074;44.696;10.358;2022-11-25T13:52:43;44.92;;;31.08;;
74523;SDS011;63074;44.696;10.358;2022-11-25T13:58:04;41.60;;;29.65;;
74523;SDS011;63074;44.696;10.358;2022-11-25T14:03:43;49.78;;;33.25;;
74523;SDS011;63074;44.696;10.358;2022-11-25T14:05:53;51.20;;;34.35;;
74523;SDS011;63074;44.696;10.358;2022-11-25T14:25:27;46.50;;;32.67;;
74523;SDS011;63074;44.696;10.358;2022-11-25T14:30:51;43.22;;;30.88;;
74523;SDS011;63074;44.696;10.358;2022-11-25T14:33:24;45.65;;;32.25;;
74523;SDS011;63074;44.696;10.358;2022-11-25T14:36:18;44.80;;;31.20;;
74523;SDS011;63074;44.696;10.358;2022-11-25T14:38:51;43.45;;;31.65;;
74523;SDS011;63074;44.696;10.358;2022-11-25T14:41:30;48.20;;;34.10;;
74523;SDS011;63074;44.696;10.358;2022-11-25T14:44:15;50.13;;;34.78;;
74523;SDS011;63074;44.696;10.358;2022-11-25T14:46:53;55.00;;;35.05;;
74523;SDS011;63074;44.696;10.358;2022-11-25T14:49:20;51.58;;;35.33;;
74523;SDS011;63074;44.696;10.358;2022-11-25T14:51:48;46.17;;;32.97;;
74523;SDS011;63074;44.696;10.358;2022-11-25T14:54:16;48.63;;;31.90;;
74523;SDS011;63074;44.696;10.358;2022-11-25T14:56:42;49.33;;;33.60;;
74523;SDS011;63074;44.696;10.358;2022-11-25T14:59:11;47.72;;;33.72;;
74523;SDS011;63074;44.696;10.358;2022-11-25T15:01:38;44.90;;;33.05;;
74523;SDS011;63074;44.696;10.358;2022-11-25T15:04:16;45.22;;;32.47;;
74523;SDS011;63074;44.696;10.358;2022-11-25T15:06:53;42.83;;;29.20;;
74523;SDS011;63074;44.696;10.358;2022-11-25T15:09:27;50.65;;;33.53;;
74523;SDS011;63074;44.696;10.358;2022-11-25T15:11:56;43.47;;;31.90;;
74523;SDS011;63074;44.696;10.358;2022-11-25T15:16:53;52.15;;;35.55;;
74523;SDS011;63074;44.696;10.358;2022-11-25T15:19:21;45.88;;;32.83;;
74523;SDS011;63074;44.696;10.358;2022-11-25T15:24:40;46.85;;;32.88;;
74523;SDS011;63074;44.696;10.358;2022-11-25T15:27:10;44.92;;;32.92;;
74523;SDS011;63074;44.696;10.358;2022-11-25T15:29:40;46.90;;;30.55;;
74523;SDS011;63074;44.696;10.358;2022-11-25T15:32:10;49.28;;;32.80;;
74523;SDS011;63074;44.696;10.358;2022-11-25T15:34:42;50.80;;;34.03;;
74523;SDS011;63074;44.696;10.358;2022-11-25T15:37:10;53.78;;;37.63;;
74523;SDS011;63074;44.696;10.358;2022-11-25T15:39:37;50.38;;;35.28;;
74523;SDS011;63074;44.696;10.358;2022-11-25T15:42:22;53.67;;;35.67;;
74523;SDS011;63074;44.696;10.358;2022-11-25T15:47:27;58.10;;;38.25;;
74523;SDS011;63074;44.696;10.358;2022-11-25T15:49:59;59.58;;;39.53;;
74523;SDS011;63074;44.696;10.358;2022-11-25T15:52:28;57.92;;;37.75;;
74523;SDS011;63074;44.696;10.358;2022-11-25T15:55:04;62.75;;;41.60;;
74523;SDS011;63074;44.696;10.358;2022-11-25T15:57:40;58.83;;;39.92;;
74523;SDS011;63074;44.696;10.358;2022-11-25T16:00:14;63.28;;;39.60;;
74523;SDS011;63074;44.696;10.358;2022-11-25T16:10:22;63.50;;;41.17;;
74523;SDS011;63074;44.696;10.358;2022-11-25T16:21:02;66.55;;;42.47;;
74523;SDS011;63074;44.696;10.358;2022-11-25T16:23:35;68.93;;;43.80;;
74523;SDS011;63074;44.696;10.358;2022-11-25T16:28:36;65.18;;;40.72;;
74523;SDS011;63074;44.696;10.358;2022-11-25T16:31:14;66.40;;;41.15;;
74523;SDS011;63074;44.696;10.358;2022-11-25T16:33:41;67.45;;;41.38;;
74523;SDS011;63074;44.696;10.358;2022-11-25T16:36:07;64.22;;;40.88;;
74523;SDS011;63074;44.696;10.358;2022-11-25T16:38:33;64.68;;;41.15;;
74523;SDS011;63074;44.696;10.358;2022-11-25T16:41:00;70.72;;;43.35;;
74523;SDS011;63074;44.696;10.358;2022-11-25T16:43:35;65.90;;;39.28;;
74523;SDS011;63074;44.696;10.358;2022-11-25T16:46:04;73.30;;;47.35;;
74523;SDS011;63074;44.696;10.358;2022-11-25T16:48:30;68.18;;;44.05;;
74523;SDS011;63074;44.696;10.358;2022-11-25T16:50:56;74.68;;;45.70;;
74523;SDS011;63074;44.696;10.358;2022-11-25T16:53:23;74.10;;;47.40;;
74523;SDS011;63074;44.696;10.358;2022-11-25T16:55:49;68.03;;;44.17;;
74523;SDS011;63074;44.696;10.358;2022-11-25T16:58:19;76.05;;;45.65;;
74523;SDS011;63074;44.696;10.358;2022-11-25T17:00:48;74.32;;;46.25;;
74523;SDS011;63074;44.696;10.358;2022-11-25T17:03:17;76.25;;;46.08;;
74523;SDS011;63074;44.696;10.358;2022-11-25T17:05:44;74.38;;;45.65;;
74523;SDS011;63074;44.696;10.358;2022-11-25T17:08:11;71.57;;;45.13;;
74523;SDS011;63074;44.696;10.358;2022-11-25T17:10:38;74.38;;;43.78;;
74523;SDS011;63074;44.696;10.358;2022-11-25T17:13:05;67.85;;;43.22;;
74523;SDS011;63074;44.696;10.358;2022-11-25T17:15:33;76.65;;;44.67;;
74523;SDS011;63074;44.696;10.358;2022-11-25T17:18:01;72.25;;;46.08;;
74523;SDS011;63074;44.696;10.358;2022-11-25T17:20:30;77.53;;;47.80;;
74523;SDS011;63074;44.696;10.358;2022-11-25T17:22:56;80.57;;;52.25;;
74523;SDS011;63074;44.696;10.358;2022-11-25T17:25:23;79.40;;;51.72;;
74523;SDS011;63074;44.696;10.358;2022-11-25T17:27:51;82.85;;;51.63;;